• Join FlightAware (Why Join?)
  • Login
  • US Flag 
11:16AM EDT


 

Airport Tracker/Info


-or-


 

Live Flight TrackerFlight Track Log ✈ FDX1570 ✈ 01-Feb-2014 ✈ KMEM - KALB

Flight Track Log - Related Links

Times and Time Zones

All times are in EST time to prevent confusion due to time zone crossing. See the FDX1570 flight status page for this flight to view local times or setup timezone preferences in your user account.

Time Position Orientation Groundspeed Altitude Reporting Facility
EST Latitude Longitude Course Direction KTS MPH feet Rate Location/Type
04:23AM 35.0333 -89.9667 180° South 156 180 1,000  Level KMEM
04:23AM 35.0167 -89.9667 180° South 172 198 1,700 2,400 Climbing KMEM
04:24AM 34.9833 -89.9500 158° South 216 249 3,700 2,700 Climbing KMEM
04:25AM 35.0000 -89.8500 78° East 322 371 7,100 3,300 Climbing KMEM
04:26AM 35.0256 -89.7758 67° East 310 357 9,600 2,100 Climbing Memphis Center
04:27AM 35.0647 -89.6589 68° East 371 427 10,900 2,100 Climbing Memphis Center
04:28AM 35.1089 -89.5267 68° East 410 472 13,800 2,580 Climbing Memphis Center
04:29AM 35.1553 -89.3889 68° East 426 490 16,200 2,460 Climbing Memphis Center
04:30AM 35.2025 -89.2464 68° East 441 507 18,800 2,100 Climbing Memphis Center
04:31AM 35.2433 -89.1217 68° East 456 525 20,400 1,680 Climbing Memphis Center
04:32AM 35.3083 -88.9747 62° Northeast 480 552 22,200 1,680 Climbing Memphis Center
04:33AM 35.3808 -88.8253 59° Northeast 498 573 23,800 1,620 Climbing Memphis Center
04:34AM 35.4542 -88.6719 60° Northeast 513 590 25,500 1,500 Climbing Memphis Center
04:35AM 35.5406 -88.5247 54° Northeast 527 606 26,800 1,260 Climbing Memphis Center
04:36AM 35.6278 -88.3753 54° Northeast 536 617 28,100 1,380 Climbing Memphis Center
04:37AM 35.7167 -88.2208 55° Northeast 547 629 29,600 1,680 Climbing Memphis Center
04:38AM 35.8122 -88.0628 53° Northeast 554 638 31,500 1,800 Climbing Memphis Center
04:39AM 35.9028 -87.9064 54° Northeast 555 639 33,300 1,740 Climbing Memphis Center
04:40AM 35.9947 -87.7517 54° Northeast 554 638 35,100 1,620 Climbing Memphis Center
04:41AM 36.0844 -87.5961 54° Northeast 552 635 36,600 540 Climbing Memphis Center
04:47AM 36.6396 -86.6245 54° Northeast 562 647 39,000 300 Climbing FlightAware ADS-B (KBRY)
04:48AM 36.6143 -86.6694 235° Southwest 562 647 39,000  Level FlightAware ADS-B (KBRY)
04:50AM 36.9057 -86.1499 55° Northeast 560 644 39,000  Level FlightAware ADS-B (KBRY)
04:51AM 36.9936 -85.9932 55° Northeast 559 643 39,000  Level FlightAware ADS-B (KBRY)
04:52AM 37.0842 -85.8286 55° Northeast 559 643 39,000  Level FlightAware ADS-B (KBRY)
04:53AM 37.1720 -85.6688 55° Northeast 559 643 39,000  Level FlightAware ADS-B (KBRY)
04:54AM 37.2507 -85.5245 56° Northeast 559 643 39,000  Level FlightAware ADS-B (KBRY)
04:55AM 37.3422 -85.3557 56° Northeast 560 644 39,000  Level FlightAware ADS-B (KBRY)
04:56AM 37.4007 -85.2480 56° Northeast 561 646 39,000  Level FlightAware ADS-B (KBRY)
04:57AM 37.5222 -85.0241 56° Northeast 561 646 39,000  Level FlightAware ADS-B (KBRY)
04:58AM 37.6059 -84.8670 56° Northeast 563 648 39,000  Level FlightAware ADS-B (KBRY)
04:59AM 37.6960 -84.6980 56° Northeast 563 648 39,000  Level FlightAware ADS-B (KBRY)
05:00AM 37.7811 -84.5369 56° Northeast 565 650 39,000  Level FlightAware ADS-B (KBRY)
05:01AM 37.8681 -84.3721 56° Northeast 565 650 39,000  Level FlightAware ADS-B (KBRY)
05:01AM 37.8914 -84.3280 56° Northeast 566 651 39,000  Level FlightAware ADS-B (KBRY)
05:02AM 37.9769 -84.1654 56° Northeast 566 651 39,000  Level FlightAware ADS-B (KBRY)
05:05AM 38.1845 -83.7676 56° Northeast 571 657 39,000  Level FlightAware ADS-B (KPMH)
05:05AM 38.2641 -83.6132 57° Northeast 572 658 39,000  Level FlightAware ADS-B (KPMH)
05:06AM 38.3244 -83.4950 57° Northeast 572 658 39,000  Level FlightAware ADS-B (KPMH)
05:07AM 38.3824 -83.3823 57° Northeast 571 657 39,000  Level FlightAware ADS-B (KPMH)
05:07AM 38.4392 -83.2723 57° Northeast 572 658 39,000  Level FlightAware ADS-B (KPMH)
05:08AM 38.4845 -83.1820 57° Northeast 572 658 39,000  Level FlightAware ADS-B (KPMH)
05:09AM 38.5509 -83.0591 55° Northeast 572 658 39,000  Level FlightAware ADS-B (KPMH)
05:09AM 38.5957 -82.9723 57° Northeast 573 659 39,000  Level FlightAware ADS-B (KPMH)
05:10AM 38.6523 -82.8655 56° Northeast 573 659 39,000  Level FlightAware ADS-B (KPMH)
05:11AM 38.7297 -82.7164 56° Northeast 572 658 39,000  Level FlightAware ADS-B (KPMH)
05:11AM 38.7881 -82.6038 56° Northeast 572 658 39,000  Level FlightAware ADS-B (KPMH)
05:12AM 38.8659 -82.4539 56° Northeast 572 658 39,000  Level FlightAware ADS-B (KPMH)
05:13AM 38.9180 -82.3521 57° Northeast 571 657 39,000  Level FlightAware ADS-B (KPMH)
05:14AM 38.9804 -82.2305 57° Northeast 571 657 39,000  Level FlightAware ADS-B (KPMH)
05:14AM 39.0578 -82.0804 56° Northeast 571 657 39,000  Level FlightAware ADS-B (KPMH)
05:15AM 39.1185 -81.9610 57° Northeast 571 657 39,000  Level FlightAware ADS-B (KPMH)
05:16AM 39.1390 -81.9210 56° Northeast 572 658 39,000  Level FlightAware ADS-B (KPMH)
05:17AM 39.2586 -81.6848 57° Northeast 571 657 39,000  Level FlightAware ADS-B (KPMH)
05:18AM 39.3481 -81.5053 57° Northeast 570 656 39,000  Level Indianapolis Center
05:19AM 39.4350 -81.3319 57° Northeast 570 656 39,000  Level Indianapolis Center
05:20AM 39.5217 -81.1578 57° Northeast 572 658 39,000  Level Indianapolis Center
05:21AM 39.6067 -80.9844 57° Northeast 570 656 39,000  Level Indianapolis Center
05:22AM 39.6925 -80.8103 57° Northeast 572 658 39,000  Level Indianapolis Center
05:23AM 39.7897 -80.6153 57° Northeast 566 651 39,000  Level Cleveland Center
05:29AM 40.2584 -79.6363 57° Northeast 574 661 39,000  Level FlightAware ADS-B
05:29AM 40.3070 -79.5358 58° Northeast 575 662 39,000  Level FlightAware ADS-B
05:30AM 40.3892 -79.3575 58° Northeast 574 661 39,000  Level Cleveland Center
05:31AM 40.4658 -79.1925 59° Northeast 574 661 39,000  Level Cleveland Center
05:34AM 40.7392 -78.6017 59° Northeast 572 658 39,000 -180 Level FlightAware ADS-B (KWWD)
05:40AM 41.2034 -77.5690 59° Northeast 564 649 37,600 -780 Descending FlightAware ADS-B (KPVU)
05:42AM 41.3578 -77.2177 60° Northeast 567 652 33,300 -2,040 Descending FlightAware ADS-B (KWWD)
05:43AM 41.3517 -77.2298 236° Southwest 573 659 32,800 -1,080 Descending FlightAware ADS-B (KPVU)
05:43AM 41.4475 -77.0361 236° Southwest 564 649 32,000 -1,080 Descending Cleveland Center
05:44AM 41.5633 -76.8431 51° Northeast 559 643 31,000 -900 Descending Cleveland Center
05:45AM 41.6433 -76.7058 52° Northeast 555 639 30,300 -840 Descending Cleveland Center
05:46AM 41.7358 -76.5419 53° Northeast 554 638 29,400 -1,020 Descending Cleveland Center
05:47AM 41.8272 -76.3794 53° Northeast 551 634 28,300 -1,560 Descending Cleveland Center
05:50AM 42.0561 -75.9731 53° Northeast 541 623 24,200 -1,260 Descending Boston Center
05:51AM 42.1469 -75.8117 53° Northeast 541 623 24,000 -360 Descending Boston Center
05:52AM 42.2364 -75.6494 53° Northeast 541 623 23,600 -1,200 Descending Boston Center
05:53AM 42.2944 -75.4594 68° East 545 627 21,600 -1,980 Descending Boston Center
05:54AM 42.3439 -75.2742 70° East 535 616 19,700 -1,980 Descending Boston Center
05:55AM 42.3981 -75.0944 68° East 524 603 17,700 -1,860 Descending Boston Center
05:56AM 42.4472 -74.9250 68° East 494 568 16,000 -1,680 Descending Boston Center
05:57AM 42.4931 -74.7739 68° East 384 442 14,400 -1,560 Descending Boston Center
05:57AM 42.4931 -74.7725 90° East 417 480 14,400 -1,020 Level Boston Center
05:57AM 42.4950 -74.7631 74° East 381 438 14,300 -1,320 Descending Boston Center
05:58AM 42.5325 -74.6417 67° East 375 432 13,100 -1,380 Descending Boston Center
05:58AM 42.5331 -74.6336 85° East 354 407 12,900 -1,560 Descending Boston Center
05:59AM 42.5622 -74.5267 70° East 328 377 11,600 -1,680 Descending Boston Center
05:59AM 42.5594 -74.5178 113° Southeast 308 354 11,300 -1,920 Descending Boston Center
06:00AM 42.5678 -74.4111 84° East 308 354 9,700 -1,920 Descending Boston Center
06:00AM 42.5675 -74.3956 91° East 300 345 9,400 -1,800 Descending Boston Center
06:01AM 42.5736 -74.2983 85° East 300 345 8,000 -1,680 Descending Boston Center
06:01AM 42.5742 -74.2814 87° East 301 346 7,700 -1,560 Descending Boston Center
06:02AM 42.5786 -74.1883 86° East 294 338 6,400 -1,440 Descending Boston Center
06:02AM 42.5775 -74.1719 95° East 291 335 6,300 -1,260 Descending Boston Center
06:03AM 42.5831 -74.0850 85° East 276 318 5,200 -1,320 Descending Boston Center
06:03AM 42.5833 -74.0722 88° East 267 307 5,000 -900 Descending Boston Center
06:04AM 42.5894 -73.9908 84° East 229 264 4,300 -840 Descending Boston Center
06:04AM 42.5886 -73.9867 105° East 214 246 4,200 -1,500 Descending Boston Center
06:05AM 42.5928 -73.9131 86° East 209 241 2,800 -1,440 Descending Boston Center
06:05AM 42.5919 -73.9094 107° East 201 231 2,700 -840 Descending Boston Center
06:06AM 42.5975 -73.8411 84° East 195 224 2,000 -840 Descending Boston Center
06:06AM 42.5967 -73.8381 110° East 182 209 1,900 -120 Descending Boston Center
06:07AM 42.6361 -73.8047 32° Northeast 179 206 1,900  Level Boston Center
06:07AM 42.6422 -73.8011 23° Northeast 174 200 1,900 -420 Level Boston Center
06:08AM 42.6800 -73.8014 360° North 159 183 1,500 -540 Descending Boston Center
06:08AM 42.6831 -73.8006 11° North 138 159 1,400 -720 Descending Boston Center
06:09AM 42.7139 -73.8033 356° North 127 146 800 -720 Descending Boston Center
06:09AM 42.7169 -73.8031 North 116 133 700 -660 Descending Boston Center
06:10AM 42.7489 -73.8039 359° North 123 142 200 -600 Descending Boston Center